Sumisemaru No.5 — JE3162 — position and weather

sailwx.info

Track history (hours):
 
Tides and Currents Weather Stations Pressure Air Temp Water Temp Dewpoint Dewpoint Depression Visibility Wind Speed Wind Dir Waves Ship Positions

Sumisemaru No.5

Last reported at 2014-Aug-20 23:32 UTC. Time now 2014-Aug-21 00:27 UTC.
Position N 35°26' E 139°42'.

Length 96 m; draft 6.7 m.

Type: Cargo ship. MMSI: 431700423.

Date/timePositionNaut miles runAvg speedWind from/ knotsBaromVisibWave heightAir tempDewpointWater temp
2014-Aug-20 23:32N 35°26' E 139°42'0 0.0
2014-Aug-20 22:32N 35°26' E 139°42'0 0.0
2014-Aug-20 21:32N 35°26' E 139°42'0 0.0
2014-Aug-20 20:32N 35°26' E 139°42'0 0.1
2014-Aug-20 19:32N 35°26' E 139°42'0 0.0
2014-Aug-20 18:29N 35°26' E 139°42'0 0.1
2014-Aug-20 17:32N 35°26' E 139°42'0 0.1
2014-Aug-20 16:32N 35°26' E 139°42'0 0.0
2014-Aug-20 15:29N 35°26' E 139°42'0 0.0
2014-Aug-20 14:32N 35°26' E 139°42'0 0.0
2014-Aug-20 13:32N 35°26' E 139°42'0 0.0
2014-Aug-20 12:32N 35°26' E 139°42'0 0.0
2014-Aug-20 11:32N 35°26' E 139°42'0 0.1
2014-Aug-20 10:32N 35°26' E 139°42'0 0.1
2014-Aug-20 09:32N 35°26' E 139°42'0 0.0
2014-Aug-20 08:32N 35°26' E 139°42'0 0.0
2014-Aug-20 07:32N 35°26' E 139°42'0 0.0
2014-Aug-20 06:32N 35°26' E 139°42'0 0.0
2014-Aug-20 05:32N 35°26' E 139°42'0 0.1
2014-Aug-20 04:32N 35°26' E 139°42'0 0.1
2014-Aug-20 03:32N 35°26' E 139°42'1 0.7
2014-Aug-20 02:32N 35°26' E 139°41'0 0.0
2014-Aug-20 01:32N 35°26' E 139°41'0 0.0
2014-Aug-20 00:32N 35°26' E 139°41'0 0.0
2014-Aug-19 23:32N 35°26' E 139°41'0 0.0
2014-Aug-19 22:32N 35°26' E 139°41'4 4.3
2014-Aug-19 21:33N 35°22' E 139°43'10 9.9
2014-Aug-19 20:33N 35°12' E 139°47'1110.9
2014-Aug-19 19:34N 35°02' E 139°43'1010.5
2014-Aug-19 18:34N 34°51' E 139°45'10 9.4
2014-Aug-19 17:32N 34°51' E 139°57'1110.8
2014-Aug-19 16:33N 34°56' E 140°08'1110.8
2014-Aug-19 15:32N 35°02' E 140°20'1410.7
2014-Aug-19 14:14N 35°11' E 140°33'1111.8
2014-Aug-19 13:19N 35°20' E 140°40'1012.2
2014-Aug-19 12:29N 35°28' E 140°46'  
Track history (hours):
 
Tides and Currents Weather Stations Pressure Air Temp Water Temp Dewpoint Dewpoint Depression Visibility Wind Speed Wind Dir Waves Ship Positions

Sumisemaru No.5

Last reported at 2014-Aug-20 23:32 UTC. Time now 2014-Aug-21 00:27 UTC.
Position N 35°26' E 139°42'.

Length 96 m; draft 6.7 m.

Type: Cargo ship. MMSI: 431700423.

Date/timePositionNaut miles runAvg speedWind from/ knotsBaromVisibWave heightAir tempDewpointWater temp
2014-Aug-20 23:32N 35°26' E 139°42'0 0.0
2014-Aug-20 22:32N 35°26' E 139°42'0 0.0
2014-Aug-20 21:32N 35°26' E 139°42'0 0.0
2014-Aug-20 20:32N 35°26' E 139°42'0 0.1
2014-Aug-20 19:32N 35°26' E 139°42'0 0.0
2014-Aug-20 18:29N 35°26' E 139°42'0 0.1
2014-Aug-20 17:32N 35°26' E 139°42'0 0.1
2014-Aug-20 16:32N 35°26' E 139°42'0 0.0
2014-Aug-20 15:29N 35°26' E 139°42'0 0.0
2014-Aug-20 14:32N 35°26' E 139°42'0 0.0
2014-Aug-20 13:32N 35°26' E 139°42'0 0.0
2014-Aug-20 12:32N 35°26' E 139°42'0 0.0
2014-Aug-20 11:32N 35°26' E 139°42'0 0.1
2014-Aug-20 10:32N 35°26' E 139°42'0 0.1
2014-Aug-20 09:32N 35°26' E 139°42'0 0.0
2014-Aug-20 08:32N 35°26' E 139°42'0 0.0
2014-Aug-20 07:32N 35°26' E 139°42'0 0.0
2014-Aug-20 06:32N 35°26' E 139°42'0 0.0
2014-Aug-20 05:32N 35°26' E 139°42'0 0.1
2014-Aug-20 04:32N 35°26' E 139°42'0 0.1
2014-Aug-20 03:32N 35°26' E 139°42'1 0.7
2014-Aug-20 02:32N 35°26' E 139°41'0 0.0
2014-Aug-20 01:32N 35°26' E 139°41'0 0.0
2014-Aug-20 00:32N 35°26' E 139°41'0 0.0
2014-Aug-19 23:32N 35°26' E 139°41'0 0.0
2014-Aug-19 22:32N 35°26' E 139°41'4 4.3
2014-Aug-19 21:33N 35°22' E 139°43'10 9.9
2014-Aug-19 20:33N 35°12' E 139°47'1110.9
2014-Aug-19 19:34N 35°02' E 139°43'1010.5
2014-Aug-19 18:34N 34°51' E 139°45'10 9.4
2014-Aug-19 17:32N 34°51' E 139°57'1110.8
2014-Aug-19 16:33N 34°56' E 140°08'1110.8
2014-Aug-19 15:32N 35°02' E 140°20'1410.7
2014-Aug-19 14:14N 35°11' E 140°33'1111.8
2014-Aug-19 13:19N 35°20' E 140°40'1012.2
2014-Aug-19 12:29N 35°28' E 140°46'  

Dump ship's entire track history